Zellwood, Florida
Current Conditions -  °F | °C
As of 10:53 PM on Wednesday 22 Oct 2014 (Local Time) from KLEE Reporting Station
Clear Clear  
Wind Chill: 19°   Ceiling: Unl
Heat Index: 19°   Visibility: 10mi
Dew Point: 14°   Wind: 9mph
Humidity: 73%   Direction: 40°NE
Pressure: 30.04"   Gusts: NA
Location:  28.73°N, 81.6°W
Report Text: KLEE 230253Z AUTO 04008KT 10SM CLR 19/14 A3004 RMK AO2 SLP170 T01890139 51014
Loading
Personal Weather Stations






























Interactive Weather Map
Tropical Storm Tracking
New forecast layout! Learn more

10-Day Weather Forecast

Advertisements
Track Severe Weather on mobile